Peach Bottom, Pennsylvania
Current Conditions -  °F | °C
As of 10:35 PM on Saturday 22 Nov 2014 (Local Time) from KMQS Reporting Station
Broken Clouds Broken Clouds  
Wind Chill: 35°   Ceiling: 11000
Heat Index: 39°   Visibility: 10mi
Dew Point: 23°   Wind: 6mph
Humidity: 52%   Direction: 200°SSW
Pressure: 30.22"   Gusts: NA
Location:  39.75°N, 76.23°W
Report Text: KMQS 230335Z AUTO 20005KT 10SM BKN110 04/M05 A3022 RMK AO2
Loading
Personal Weather Stations






























Interactive Weather Map New forecast layout! Learn more

10-Day Weather Forecast

Advertisements
Track Severe Weather on mobile